Mattapoisett, Massachusetts
Current Conditions -  °F | °C
As of 8:53 PM on Saturday 25 Oct 2014 (Local Time) from KEWB Reporting Station
Overcast Overcast  
Wind Chill: 56°   Ceiling: 10000
Heat Index: 56°   Visibility: 10mi
Dew Point: 48°   Wind: 7mph
Humidity: 75%   Direction: 240°WSW
Pressure: 29.59"   Gusts: NA
Location:  41.66°N, 70.82°W
Report Text: KEWB 260053Z 24006KT 10SM OVC100 13/09 A2959 RMK AO2 SLP020 T01330089
Loading
Personal Weather Stations






























Interactive Weather Map
Tropical Storm Tracking
New forecast layout! Learn more

10-Day Weather Forecast

Advertisements
Track Severe Weather on mobile